KGGG

East Texas Regional Airport

Longview, Texas, USA
KGGG 221623Z 2216/2312 15012G18KT P6SM OVC050 FM221800 16014G20KT P6SM VCSH OVC015 FM230000 17013G23KT 5SM -SHRA BR OVC008 FM230600 30015G25KT 3SM SHRA BR OVC015 FM230900 31015G25KT P6SM SCT015 OVC020
Issued Valid From Valid To
Jan-22 @ 16:23 UTC
(55 minutes ago)
Jan-22 @ 16:00 UTC
(an hour ago)
Jan-23 @ 12:00 UTC
(in 19 hours)
Jan-22 @ 16:00 to Jan-22 @ 18:00
KGGG 221623Z 2216/2312 15012G18KT P6SM OVC050
Wind Visibility Clouds
150° at 12 knots
 Gusting to 18 knots
Greater than 6 miles
  • Overcast at 5,000' AGL
From Jan-22 @ 18:00 to Jan-23 @ 00:00
FM221800 16014G20KT P6SM VCSH OVC015
Wind Visibility Clouds
160° at 14 knots
 Gusting to 20 knots
Greater than 6 miles
  • Overcast at 1,500' AGL
From Jan-23 @ 00:00 to Jan-23 @ 06:00
FM230000 17013G23KT 5SM -SHRA BR OVC008
Wind Visibility Clouds Conditions
170° at 13 knots
 Gusting to 23 knots
5 miles
  • Overcast at 800' AGL
  • Light Rain
  • Mist
From Jan-23 @ 06:00 to Jan-23 @ 09:00
FM230600 30015G25KT 3SM SHRA BR OVC015
Wind Visibility Clouds Conditions
300° at 15 knots
 Gusting to 25 knots
3 miles
  • Overcast at 1,500' AGL
  • Rain
  • Mist
From Jan-23 @ 09:00 to Jan-23 @ 12:00
FM230900 31015G25KT P6SM SCT015 OVC020
Wind Visibility Clouds
310° at 15 knots
 Gusting to 25 knots
Greater than 6 miles
  • Scattered at 1,500' AGL
  • Overcast at 2,000' AGL
KGGG 221623Z 2216/2312 15012G18KT P6SM OVC050 FM221800 16014G20KT P6SM VCSH OVC015 FM230000 17013G23KT 5SM -SHRA BR OVC008 FM230600 30015G25KT 3SM SHRA BR OVC015 FM230900 31015G25KT P6SM SCT015 OVC020
Issued Jan-22 @ 16:23 UTC
(55 minutes ago)
Valid From Jan-22 @ 16:00 UTC
(an hour ago)
Valid To Jan-23 @ 12:00 UTC
(in 19 hours)
Jan-22 @ 16:00 - Jan-22 @ 18:00
Wind Visibility
150° at 12 knots
 Gusting to 18 knots
Greater than 6 miles
Clouds
  • Overcast at 5,000' AGL
From Jan-22 @ 18:00 - Jan-23 @ 00:00
Wind Visibility
160° at 14 knots
 Gusting to 20 knots
Greater than 6 miles
Clouds
  • Overcast at 1,500' AGL
From Jan-23 @ 00:00 - Jan-23 @ 06:00
Wind Visibility
170° at 13 knots
 Gusting to 23 knots
5 miles
Clouds
  • Overcast at 800' AGL
Conditions
  • Light Rain
  • Mist
From Jan-23 @ 06:00 - Jan-23 @ 09:00
Wind Visibility
300° at 15 knots
 Gusting to 25 knots
3 miles
Clouds
  • Overcast at 1,500' AGL
Conditions
  • Rain
  • Mist
From Jan-23 @ 09:00 - Jan-23 @ 12:00
Wind Visibility
310° at 15 knots
 Gusting to 25 knots
Greater than 6 miles
Clouds
  • Scattered at 1,500' AGL
  • Overcast at 2,000' AGL